sensor_id;sensor_type;location;lat;lon;timestamp;temperature;humidity
25951;DHT22;13748;52.240;6.002;2023-03-12T00:00:04;1.70;99.90
25951;DHT22;13748;52.240;6.002;2023-03-12T00:02:34;1.60;99.90
25951;DHT22;13748;52.240;6.002;2023-03-12T00:05:01;1.60;99.90
25951;DHT22;13748;52.240;6.002;2023-03-12T00:07:28;1.60;99.90
25951;DHT22;13748;52.240;6.002;2023-03-12T00:09:55;1.60;99.90
25951;DHT22;13748;52.240;6.002;2023-03-12T00:12:21;1.60;99.90
25951;DHT22;13748;52.240;6.002;2023-03-12T00:14:48;1.50;99.90
25951;DHT22;13748;52.240;6.002;2023-03-12T00:17:15;1.60;99.90
25951;DHT22;13748;52.240;6.002;2023-03-12T00:19:41;1.50;99.90
25951;DHT22;13748;52.240;6.002;2023-03-12T00:22:08;1.50;99.90
25951;DHT22;13748;52.240;6.002;2023-03-12T00:24:35;1.50;99.90
25951;DHT22;13748;52.240;6.002;2023-03-12T00:27:02;1.50;99.90
25951;DHT22;13748;52.240;6.002;2023-03-12T00:29:28;1.50;99.90
25951;DHT22;13748;52.240;6.002;2023-03-12T00:31:55;1.50;99.90
25951;DHT22;13748;52.240;6.002;2023-03-12T00:34:22;1.40;99.90
25951;DHT22;13748;52.240;6.002;2023-03-12T00:36:48;1.40;99.90
25951;DHT22;13748;52.240;6.002;2023-03-12T00:39:15;1.40;99.90
25951;DHT22;13748;52.240;6.002;2023-03-12T00:41:42;1.30;99.90
25951;DHT22;13748;52.240;6.002;2023-03-12T00:44:09;1.30;99.90
25951;DHT22;13748;52.240;6.002;2023-03-12T00:46:35;1.20;99.90
25951;DHT22;13748;52.240;6.002;2023-03-12T00:49:02;1.20;99.90
25951;DHT22;13748;52.240;6.002;2023-03-12T00:51:29;1.20;99.90
25951;DHT22;13748;52.240;6.002;2023-03-12T00:53:55;1.20;99.90
25951;DHT22;13748;52.240;6.002;2023-03-12T00:56:22;1.20;99.90
25951;DHT22;13748;52.240;6.002;2023-03-12T00:58:49;1.20;99.90
25951;DHT22;13748;52.240;6.002;2023-03-12T01:01:16;1.20;99.90
25951;DHT22;13748;52.240;6.002;2023-03-12T01:03:43;1.20;99.90
25951;DHT22;13748;52.240;6.002;2023-03-12T01:06:10;1.20;99.90
25951;DHT22;13748;52.240;6.002;2023-03-12T01:08:36;1.30;99.90
25951;DHT22;13748;52.240;6.002;2023-03-12T01:11:03;1.30;99.90
25951;DHT22;13748;52.240;6.002;2023-03-12T01:13:30;1.30;99.90
25951;DHT22;13748;52.240;6.002;2023-03-12T01:15:57;1.40;99.90
25951;DHT22;13748;52.240;6.002;2023-03-12T01:18:24;1.30;99.90
25951;DHT22;13748;52.240;6.002;2023-03-12T01:20:51;1.40;99.90
25951;DHT22;13748;52.240;6.002;2023-03-12T01:23:17;1.40;99.90
25951;DHT22;13748;52.240;6.002;2023-03-12T01:25:44;1.40;99.90
25951;DHT22;13748;52.240;6.002;2023-03-12T01:28:13;1.50;99.90
25951;DHT22;13748;52.240;6.002;2023-03-12T01:30:39;1.50;99.90
25951;DHT22;13748;52.240;6.002;2023-03-12T01:33:06;1.50;99.90
25951;DHT22;13748;52.240;6.002;2023-03-12T01:35:37;1.60;99.90
25951;DHT22;13748;52.240;6.002;2023-03-12T01:38:06;1.60;99.90
25951;DHT22;13748;52.240;6.002;2023-03-12T01:40:34;1.70;99.90
25951;DHT22;13748;52.240;6.002;2023-03-12T01:48:52;1.80;99.90
25951;DHT22;13748;52.240;6.002;2023-03-12T01:51:21;1.80;99.90
25951;DHT22;13748;52.240;6.002;2023-03-12T01:53:51;1.80;99.90
25951;DHT22;13748;52.240;6.002;2023-03-12T01:56:20;1.80;99.90
25951;DHT22;13748;52.240;6.002;2023-03-12T01:58:51;1.80;99.90
25951;DHT22;13748;52.240;6.002;2023-03-12T02:01:19;1.90;99.90
25951;DHT22;13748;52.240;6.002;2023-03-12T02:03:50;1.90;99.90
25951;DHT22;13748;52.240;6.002;2023-03-12T02:06:24;1.90;99.90
25951;DHT22;13748;52.240;6.002;2023-03-12T02:08:54;1.90;99.90
25951;DHT22;13748;52.240;6.002;2023-03-12T02:11:22;1.90;99.90
25951;DHT22;13748;52.240;6.002;2023-03-12T02:13:48;1.90;99.90
25951;DHT22;13748;52.240;6.002;2023-03-12T02:16:15;1.90;99.90
25951;DHT22;13748;52.240;6.002;2023-03-12T02:18:43;1.90;99.90
25951;DHT22;13748;52.240;6.002;2023-03-12T02:21:19;1.90;99.90
25951;DHT22;13748;52.240;6.002;2023-03-12T02:23:59;1.90;99.90
25951;DHT22;13748;52.240;6.002;2023-03-12T02:26:28;1.90;99.90
25951;DHT22;13748;52.240;6.002;2023-03-12T02:28:58;1.90;99.90
25951;DHT22;13748;52.240;6.002;2023-03-12T02:31:30;1.90;99.90
25951;DHT22;13748;52.240;6.002;2023-03-12T02:33:58;1.90;99.90
25951;DHT22;13748;52.240;6.002;2023-03-12T02:36:26;1.90;99.90
25951;DHT22;13748;52.240;6.002;2023-03-12T02:38:54;1.90;99.90
25951;DHT22;13748;52.240;6.002;2023-03-12T02:41:37;1.90;99.90
25951;DHT22;13748;52.240;6.002;2023-03-12T02:44:23;2.00;99.90
25951;DHT22;13748;52.240;6.002;2023-03-12T02:46:56;2.00;99.90
25951;DHT22;13748;52.240;6.002;2023-03-12T02:49:27;2.00;99.90
25951;DHT22;13748;52.240;6.002;2023-03-12T02:51:54;2.00;99.90
25951;DHT22;13748;52.240;6.002;2023-03-12T02:54:22;2.00;99.90
25951;DHT22;13748;52.240;6.002;2023-03-12T02:56:50;2.10;99.90
25951;DHT22;13748;52.240;6.002;2023-03-12T02:59:18;2.00;99.90
25951;DHT22;13748;52.240;6.002;2023-03-12T03:01:54;2.00;99.90
25951;DHT22;13748;52.240;6.002;2023-03-12T03:04:22;2.00;99.90
25951;DHT22;13748;52.240;6.002;2023-03-12T03:06:49;2.00;99.90
25951;DHT22;13748;52.240;6.002;2023-03-12T03:09:16;2.00;99.90
25951;DHT22;13748;52.240;6.002;2023-03-12T03:11:43;2.00;99.90
25951;DHT22;13748;52.240;6.002;2023-03-12T03:14:09;2.00;99.90
25951;DHT22;13748;52.240;6.002;2023-03-12T03:16:36;2.00;99.90
25951;DHT22;13748;52.240;6.002;2023-03-12T03:19:04;2.00;99.90
25951;DHT22;13748;52.240;6.002;2023-03-12T03:21:31;2.10;99.90
25951;DHT22;13748;52.240;6.002;2023-03-12T03:23:58;2.00;99.90
25951;DHT22;13748;52.240;6.002;2023-03-12T03:26:25;2.10;99.90
25951;DHT22;13748;52.240;6.002;2023-03-12T03:28:52;2.10;99.90
25951;DHT22;13748;52.240;6.002;2023-03-12T03:31:19;2.10;99.90
25951;DHT22;13748;52.240;6.002;2023-03-12T03:33:46;2.10;99.90
25951;DHT22;13748;52.240;6.002;2023-03-12T03:36:14;2.10;99.90
25951;DHT22;13748;52.240;6.002;2023-03-12T03:38:41;2.20;99.90
25951;DHT22;13748;52.240;6.002;2023-03-12T03:41:08;2.20;99.90
25951;DHT22;13748;52.240;6.002;2023-03-12T03:43:34;2.20;99.90
25951;DHT22;13748;52.240;6.002;2023-03-12T03:46:04;2.20;99.90
25951;DHT22;13748;52.240;6.002;2023-03-12T03:48:31;2.20;99.90
25951;DHT22;13748;52.240;6.002;2023-03-12T03:51:03;2.30;99.90
25951;DHT22;13748;52.240;6.002;2023-03-12T03:53:30;2.30;99.90
25951;DHT22;13748;52.240;6.002;2023-03-12T03:55:57;2.30;99.90
25951;DHT22;13748;52.240;6.002;2023-03-12T03:58:24;2.30;99.90
25951;DHT22;13748;52.240;6.002;2023-03-12T04:00:53;2.30;99.90
25951;DHT22;13748;52.240;6.002;2023-03-12T04:03:19;2.40;99.90
25951;DHT22;13748;52.240;6.002;2023-03-12T04:05:51;2.40;99.90
25951;DHT22;13748;52.240;6.002;2023-03-12T04:08:19;2.40;99.90
25951;DHT22;13748;52.240;6.002;2023-03-12T04:10:45;2.40;99.90
25951;DHT22;13748;52.240;6.002;2023-03-12T04:13:12;2.30;99.90
25951;DHT22;13748;52.240;6.002;2023-03-12T04:15:45;2.40;99.90
25951;DHT22;13748;52.240;6.002;2023-03-12T04:18:12;2.40;99.90
25951;DHT22;13748;52.240;6.002;2023-03-12T04:20:38;2.40;99.90
25951;DHT22;13748;52.240;6.002;2023-03-12T04:23:05;2.40;99.90
25951;DHT22;13748;52.240;6.002;2023-03-12T04:25:32;2.30;99.90
25951;DHT22;13748;52.240;6.002;2023-03-12T04:27:59;2.40;99.90
25951;DHT22;13748;52.240;6.002;2023-03-12T04:30:26;2.40;99.90
25951;DHT22;13748;52.240;6.002;2023-03-12T04:32:53;2.30;99.90
25951;DHT22;13748;52.240;6.002;2023-03-12T04:35:20;2.30;99.90
25951;DHT22;13748;52.240;6.002;2023-03-12T04:37:47;2.30;99.90
25951;DHT22;13748;52.240;6.002;2023-03-12T04:40:13;2.30;99.90
25951;DHT22;13748;52.240;6.002;2023-03-12T04:42:41;2.30;99.90
25951;DHT22;13748;52.240;6.002;2023-03-12T04:45:08;2.30;99.90
25951;DHT22;13748;52.240;6.002;2023-03-12T04:47:35;2.30;99.90
25951;DHT22;13748;52.240;6.002;2023-03-12T04:50:02;2.30;99.90
25951;DHT22;13748;52.240;6.002;2023-03-12T04:52:29;2.30;99.90
25951;DHT22;13748;52.240;6.002;2023-03-12T04:54:56;2.30;99.90
25951;DHT22;13748;52.240;6.002;2023-03-12T04:57:25;2.30;99.90
25951;DHT22;13748;52.240;6.002;2023-03-12T04:59:51;2.30;99.90
25951;DHT22;13748;52.240;6.002;2023-03-12T05:02:18;2.30;99.90
25951;DHT22;13748;52.240;6.002;2023-03-12T05:04:45;2.30;99.90
25951;DHT22;13748;52.240;6.002;2023-03-12T05:07:11;2.30;99.90
25951;DHT22;13748;52.240;6.002;2023-03-12T05:09:38;2.40;99.90
25951;DHT22;13748;52.240;6.002;2023-03-12T05:12:05;2.40;99.90
25951;DHT22;13748;52.240;6.002;2023-03-12T05:14:32;2.40;99.90
25951;DHT22;13748;52.240;6.002;2023-03-12T05:16:58;2.40;99.90
25951;DHT22;13748;52.240;6.002;2023-03-12T05:19:25;2.40;99.90
25951;DHT22;13748;52.240;6.002;2023-03-12T05:21:52;2.50;99.90
25951;DHT22;13748;52.240;6.002;2023-03-12T05:24:19;2.50;99.90
25951;DHT22;13748;52.240;6.002;2023-03-12T05:26:47;2.50;99.90
25951;DHT22;13748;52.240;6.002;2023-03-12T05:29:14;2.50;99.90
25951;DHT22;13748;52.240;6.002;2023-03-12T05:31:41;2.60;99.90
25951;DHT22;13748;52.240;6.002;2023-03-12T05:34:11;2.60;99.90
25951;DHT22;13748;52.240;6.002;2023-03-12T05:36:38;2.50;99.90
25951;DHT22;13748;52.240;6.002;2023-03-12T05:39:05;2.60;99.90
25951;DHT22;13748;52.240;6.002;2023-03-12T05:41:31;2.60;99.90
25951;DHT22;13748;52.240;6.002;2023-03-12T05:43:59;2.60;99.90
25951;DHT22;13748;52.240;6.002;2023-03-12T05:46:26;2.60;99.90
25951;DHT22;13748;52.240;6.002;2023-03-12T05:48:53;2.60;99.90
25951;DHT22;13748;52.240;6.002;2023-03-12T05:51:20;2.70;99.90
25951;DHT22;13748;52.240;6.002;2023-03-12T05:53:47;2.70;99.90
25951;DHT22;13748;52.240;6.002;2023-03-12T05:56:15;2.70;99.90
25951;DHT22;13748;52.240;6.002;2023-03-12T05:58:43;2.70;99.90
25951;DHT22;13748;52.240;6.002;2023-03-12T06:01:12;2.70;99.90
25951;DHT22;13748;52.240;6.002;2023-03-12T06:03:39;2.70;99.90
25951;DHT22;13748;52.240;6.002;2023-03-12T06:06:08;2.70;99.90
25951;DHT22;13748;52.240;6.002;2023-03-12T06:08:35;2.70;99.90
25951;DHT22;13748;52.240;6.002;2023-03-12T06:11:02;2.70;99.90
25951;DHT22;13748;52.240;6.002;2023-03-12T06:13:29;2.70;99.90
25951;DHT22;13748;52.240;6.002;2023-03-12T06:16:07;2.70;99.90
25951;DHT22;13748;52.240;6.002;2023-03-12T06:18:35;2.70;99.90
25951;DHT22;13748;52.240;6.002;2023-03-12T06:21:19;2.80;99.90
25951;DHT22;13748;52.240;6.002;2023-03-12T06:23:47;2.80;99.90
25951;DHT22;13748;52.240;6.002;2023-03-12T06:26:15;2.80;99.90
25951;DHT22;13748;52.240;6.002;2023-03-12T06:28:42;2.80;99.90
25951;DHT22;13748;52.240;6.002;2023-03-12T06:31:10;2.90;99.90
25951;DHT22;13748;52.240;6.002;2023-03-12T06:33:37;2.90;99.90
25951;DHT22;13748;52.240;6.002;2023-03-12T06:36:06;2.90;99.90
25951;DHT22;13748;52.240;6.002;2023-03-12T06:38:33;2.90;99.90
25951;DHT22;13748;52.240;6.002;2023-03-12T06:41:07;3.00;99.90
25951;DHT22;13748;52.240;6.002;2023-03-12T06:43:37;3.00;99.90
25951;DHT22;13748;52.240;6.002;2023-03-12T06:46:05;3.00;99.90
25951;DHT22;13748;52.240;6.002;2023-03-12T06:48:34;3.00;99.90
25951;DHT22;13748;52.240;6.002;2023-03-12T06:51:08;3.10;99.90
25951;DHT22;13748;52.240;6.002;2023-03-12T06:53:36;3.10;99.90
25951;DHT22;13748;52.240;6.002;2023-03-12T06:56:05;3.10;99.90
25951;DHT22;13748;52.240;6.002;2023-03-12T06:58:32;3.10;99.90
25951;DHT22;13748;52.240;6.002;2023-03-12T07:00:59;3.10;99.90
25951;DHT22;13748;52.240;6.002;2023-03-12T07:03:26;3.20;99.90
25951;DHT22;13748;52.240;6.002;2023-03-12T07:05:54;3.20;99.90
25951;DHT22;13748;52.240;6.002;2023-03-12T07:08:21;3.20;99.90
25951;DHT22;13748;52.240;6.002;2023-03-12T07:10:48;3.20;99.90
25951;DHT22;13748;52.240;6.002;2023-03-12T07:13:15;3.20;99.90
25951;DHT22;13748;52.240;6.002;2023-03-12T07:15:42;3.20;99.90
25951;DHT22;13748;52.240;6.002;2023-03-12T07:18:11;3.20;99.90
25951;DHT22;13748;52.240;6.002;2023-03-12T07:20:40;3.20;99.90
25951;DHT22;13748;52.240;6.002;2023-03-12T07:23:07;3.30;99.90
25951;DHT22;13748;52.240;6.002;2023-03-12T07:25:39;3.30;99.90
25951;DHT22;13748;52.240;6.002;2023-03-12T07:28:07;3.40;99.90
25951;DHT22;13748;52.240;6.002;2023-03-12T07:30:34;3.40;99.90
25951;DHT22;13748;52.240;6.002;2023-03-12T07:33:09;3.50;99.90
25951;DHT22;13748;52.240;6.002;2023-03-12T07:35:37;3.50;99.90
25951;DHT22;13748;52.240;6.002;2023-03-12T07:38:05;3.60;99.90
25951;DHT22;13748;52.240;6.002;2023-03-12T07:40:31;3.70;99.90
25951;DHT22;13748;52.240;6.002;2023-03-12T07:42:58;3.70;99.90
25951;DHT22;13748;52.240;6.002;2023-03-12T07:45:25;3.80;99.90
25951;DHT22;13748;52.240;6.002;2023-03-12T07:47:52;3.80;99.90
25951;DHT22;13748;52.240;6.002;2023-03-12T07:50:19;3.80;99.90
25951;DHT22;13748;52.240;6.002;2023-03-12T07:52:46;3.90;99.90
25951;DHT22;13748;52.240;6.002;2023-03-12T07:55:13;3.90;99.90
25951;DHT22;13748;52.240;6.002;2023-03-12T07:57:41;3.90;99.90
25951;DHT22;13748;52.240;6.002;2023-03-12T08:00:08;3.90;99.90
25951;DHT22;13748;52.240;6.002;2023-03-12T08:02:36;3.90;99.90
25951;DHT22;13748;52.240;6.002;2023-03-12T08:05:03;3.90;99.90
25951;DHT22;13748;52.240;6.002;2023-03-12T08:07:31;3.90;99.90
25951;DHT22;13748;52.240;6.002;2023-03-12T08:09:59;3.90;99.90
25951;DHT22;13748;52.240;6.002;2023-03-12T08:12:26;3.90;99.90
25951;DHT22;13748;52.240;6.002;2023-03-12T08:14:53;3.80;99.90
25951;DHT22;13748;52.240;6.002;2023-03-12T08:17:20;4.00;99.90
25951;DHT22;13748;52.240;6.002;2023-03-12T08:19:47;3.90;99.90
25951;DHT22;13748;52.240;6.002;2023-03-12T08:22:14;3.90;99.90
25951;DHT22;13748;52.240;6.002;2023-03-12T08:24:41;3.90;99.90
25951;DHT22;13748;52.240;6.002;2023-03-12T08:27:08;3.90;99.90
25951;DHT22;13748;52.240;6.002;2023-03-12T08:29:35;4.10;99.90
25951;DHT22;13748;52.240;6.002;2023-03-12T08:32:01;3.90;99.90
25951;DHT22;13748;52.240;6.002;2023-03-12T08:34:32;3.90;99.90
25951;DHT22;13748;52.240;6.002;2023-03-12T08:37:00;3.90;99.90
25951;DHT22;13748;52.240;6.002;2023-03-12T08:39:27;3.90;99.90
25951;DHT22;13748;52.240;6.002;2023-03-12T08:41:53;3.90;99.90
25951;DHT22;13748;52.240;6.002;2023-03-12T08:44:22;3.90;99.90
25951;DHT22;13748;52.240;6.002;2023-03-12T08:46:49;4.00;99.90
25951;DHT22;13748;52.240;6.002;2023-03-12T08:49:17;4.00;99.90
25951;DHT22;13748;52.240;6.002;2023-03-12T08:51:43;4.00;99.90
25951;DHT22;13748;52.240;6.002;2023-03-12T08:54:10;4.00;99.90
25951;DHT22;13748;52.240;6.002;2023-03-12T08:56:37;4.20;99.90
25951;DHT22;13748;52.240;6.002;2023-03-12T09:01:38;4.20;99.90
25951;DHT22;13748;52.240;6.002;2023-03-12T09:04:09;4.30;99.90
25951;DHT22;13748;52.240;6.002;2023-03-12T09:06:36;4.30;99.90
25951;DHT22;13748;52.240;6.002;2023-03-12T09:09:04;4.40;99.90
25951;DHT22;13748;52.240;6.002;2023-03-12T09:11:32;4.40;99.90
25951;DHT22;13748;52.240;6.002;2023-03-12T09:14:01;4.50;99.90
25951;DHT22;13748;52.240;6.002;2023-03-12T09:16:48;4.50;99.90
25951;DHT22;13748;52.240;6.002;2023-03-12T09:19:15;4.50;99.90
25951;DHT22;13748;52.240;6.002;2023-03-12T09:21:42;4.60;99.90
25951;DHT22;13748;52.240;6.002;2023-03-12T09:24:10;4.70;99.90
25951;DHT22;13748;52.240;6.002;2023-03-12T09:26:37;4.70;99.90
25951;DHT22;13748;52.240;6.002;2023-03-12T09:29:03;4.70;99.90
25951;DHT22;13748;52.240;6.002;2023-03-12T09:31:31;4.70;99.90
25951;DHT22;13748;52.240;6.002;2023-03-12T09:33:59;4.80;99.90
25951;DHT22;13748;52.240;6.002;2023-03-12T09:36:26;4.80;99.90
25951;DHT22;13748;52.240;6.002;2023-03-12T09:38:53;4.80;99.90
25951;DHT22;13748;52.240;6.002;2023-03-12T09:41:23;4.80;99.90
25951;DHT22;13748;52.240;6.002;2023-03-12T09:46:25;4.80;99.90
25951;DHT22;13748;52.240;6.002;2023-03-12T09:48:56;5.00;99.90
25951;DHT22;13748;52.240;6.002;2023-03-12T09:51:35;5.10;99.90
25951;DHT22;13748;52.240;6.002;2023-03-12T09:54:06;5.20;99.90
25951;DHT22;13748;52.240;6.002;2023-03-12T09:56:38;5.30;99.90
25951;DHT22;13748;52.240;6.002;2023-03-12T09:59:12;5.40;99.90
25951;DHT22;13748;52.240;6.002;2023-03-12T10:01:52;5.50;99.90
25951;DHT22;13748;52.240;6.002;2023-03-12T10:05:00;5.70;99.90
25951;DHT22;13748;52.240;6.002;2023-03-12T10:07:31;5.90;99.90
25951;DHT22;13748;52.240;6.002;2023-03-12T10:12:42;6.20;99.90
25951;DHT22;13748;52.240;6.002;2023-03-12T10:15:27;6.30;99.90
25951;DHT22;13748;52.240;6.002;2023-03-12T10:21:12;6.40;99.90
25951;DHT22;13748;52.240;6.002;2023-03-12T10:24:14;6.40;99.90
25951;DHT22;13748;52.240;6.002;2023-03-12T10:26:48;6.30;99.90
25951;DHT22;13748;52.240;6.002;2023-03-12T10:29:20;6.30;99.90
25951;DHT22;13748;52.240;6.002;2023-03-12T10:32:12;6.30;99.90
25951;DHT22;13748;52.240;6.002;2023-03-12T10:34:51;6.40;99.90
25951;DHT22;13748;52.240;6.002;2023-03-12T10:37:43;6.40;99.90
25951;DHT22;13748;52.240;6.002;2023-03-12T10:40:20;6.50;99.90
25951;DHT22;13748;52.240;6.002;2023-03-12T10:42:47;6.60;99.90
25951;DHT22;13748;52.240;6.002;2023-03-12T10:48:07;6.80;99.90
25951;DHT22;13748;52.240;6.002;2023-03-12T10:50:36;6.80;99.90
25951;DHT22;13748;52.240;6.002;2023-03-12T10:53:20;6.90;99.90
25951;DHT22;13748;52.240;6.002;2023-03-12T10:56:20;6.80;99.90
25951;DHT22;13748;52.240;6.002;2023-03-12T10:58:49;7.00;99.90
25951;DHT22;13748;52.240;6.002;2023-03-12T11:01:26;6.90;99.90
25951;DHT22;13748;52.240;6.002;2023-03-12T11:04:15;7.00;99.90
25951;DHT22;13748;52.240;6.002;2023-03-12T11:09:28;7.30;99.90
25951;DHT22;13748;52.240;6.002;2023-03-12T11:11:55;7.30;99.90
25951;DHT22;13748;52.240;6.002;2023-03-12T11:14:25;7.50;99.90
25951;DHT22;13748;52.240;6.002;2023-03-12T11:16:53;7.60;99.90
25951;DHT22;13748;52.240;6.002;2023-03-12T11:19:33;7.70;99.90
25951;DHT22;13748;52.240;6.002;2023-03-12T11:22:03;7.90;99.90
25951;DHT22;13748;52.240;6.002;2023-03-12T11:24:30;8.00;99.90
25951;DHT22;13748;52.240;6.002;2023-03-12T11:27:29;8.30;99.90
25951;DHT22;13748;52.240;6.002;2023-03-12T11:29:58;8.30;99.90
25951;DHT22;13748;52.240;6.002;2023-03-12T11:32:35;8.40;99.90
25951;DHT22;13748;52.240;6.002;2023-03-12T11:35:09;8.60;99.90
25951;DHT22;13748;52.240;6.002;2023-03-12T11:40:29;8.70;99.90
25951;DHT22;13748;52.240;6.002;2023-03-12T11:46:17;8.90;99.90
25951;DHT22;13748;52.240;6.002;2023-03-12T11:49:16;8.90;99.90
25951;DHT22;13748;52.240;6.002;2023-03-12T11:57:55;9.20;99.90
25951;DHT22;13748;52.240;6.002;2023-03-12T12:03:22;9.10;99.90
25951;DHT22;13748;52.240;6.002;2023-03-12T12:14:23;9.20;99.90
25951;DHT22;13748;52.240;6.002;2023-03-12T12:20:15;9.30;99.90
25951;DHT22;13748;52.240;6.002;2023-03-12T12:23:22;9.30;99.90
25951;DHT22;13748;52.240;6.002;2023-03-12T12:26:14;9.20;99.90
25951;DHT22;13748;52.240;6.002;2023-03-12T12:31:55;9.30;99.90
25951;DHT22;13748;52.240;6.002;2023-03-12T12:37:12;9.40;99.90
25951;DHT22;13748;52.240;6.002;2023-03-12T12:39:44;9.40;99.90
25951;DHT22;13748;52.240;6.002;2023-03-12T12:42:20;9.50;99.90
25951;DHT22;13748;52.240;6.002;2023-03-12T12:44:51;9.50;99.90
25951;DHT22;13748;52.240;6.002;2023-03-12T12:47:25;9.50;99.90
25951;DHT22;13748;52.240;6.002;2023-03-12T12:49:57;9.60;99.90
25951;DHT22;13748;52.240;6.002;2023-03-12T12:52:25;9.60;99.90
25951;DHT22;13748;52.240;6.002;2023-03-12T12:54:54;9.70;99.90
25951;DHT22;13748;52.240;6.002;2023-03-12T12:57:32;9.70;99.90
25951;DHT22;13748;52.240;6.002;2023-03-12T13:00:33;9.70;99.90
25951;DHT22;13748;52.240;6.002;2023-03-12T13:03:03;9.80;99.90
25951;DHT22;13748;52.240;6.002;2023-03-12T13:08:05;9.80;99.90
25951;DHT22;13748;52.240;6.002;2023-03-12T13:13:17;9.90;99.90
25951;DHT22;13748;52.240;6.002;2023-03-12T13:15:44;9.90;99.90
25951;DHT22;13748;52.240;6.002;2023-03-12T13:18:26;9.90;99.90
25951;DHT22;13748;52.240;6.002;2023-03-12T13:23:54;10.00;99.90
25951;DHT22;13748;52.240;6.002;2023-03-12T13:26:49;10.00;99.90
25951;DHT22;13748;52.240;6.002;2023-03-12T13:31:56;10.00;99.90
25951;DHT22;13748;52.240;6.002;2023-03-12T13:37:01;10.10;99.90
25951;DHT22;13748;52.240;6.002;2023-03-12T13:39:35;10.10;99.90
25951;DHT22;13748;52.240;6.002;2023-03-12T13:44:50;10.00;99.90
25951;DHT22;13748;52.240;6.002;2023-03-12T13:47:28;10.10;99.90
25951;DHT22;13748;52.240;6.002;2023-03-12T13:50:07;10.10;99.90
25951;DHT22;13748;52.240;6.002;2023-03-12T13:55:18;10.10;99.90
25951;DHT22;13748;52.240;6.002;2023-03-12T13:57:49;10.20;99.90
25951;DHT22;13748;52.240;6.002;2023-03-12T14:02:52;10.20;99.90
25951;DHT22;13748;52.240;6.002;2023-03-12T14:05:20;10.20;99.90
25951;DHT22;13748;52.240;6.002;2023-03-12T14:08:00;10.20;99.90
25951;DHT22;13748;52.240;6.002;2023-03-12T14:10:38;10.20;99.90
25951;DHT22;13748;52.240;6.002;2023-03-12T14:16:26;10.40;99.90
25951;DHT22;13748;52.240;6.002;2023-03-12T14:18:55;10.50;99.90
25951;DHT22;13748;52.240;6.002;2023-03-12T14:21:23;10.70;99.90
25951;DHT22;13748;52.240;6.002;2023-03-12T14:23:56;11.50;99.90
25951;DHT22;13748;52.240;6.002;2023-03-12T14:26:27;11.10;99.90
25951;DHT22;13748;52.240;6.002;2023-03-12T14:29:08;11.10;99.90
25951;DHT22;13748;52.240;6.002;2023-03-12T14:31:37;11.30;99.90
25951;DHT22;13748;52.240;6.002;2023-03-12T14:34:15;11.30;99.90
25951;DHT22;13748;52.240;6.002;2023-03-12T14:36:54;11.40;99.90
25951;DHT22;13748;52.240;6.002;2023-03-12T14:39:35;11.50;99.90
25951;DHT22;13748;52.240;6.002;2023-03-12T14:42:06;11.60;99.90
25951;DHT22;13748;52.240;6.002;2023-03-12T14:44:36;11.70;99.90
25951;DHT22;13748;52.240;6.002;2023-03-12T14:47:06;11.70;99.90
25951;DHT22;13748;52.240;6.002;2023-03-12T14:49:46;11.80;99.90
25951;DHT22;13748;52.240;6.002;2023-03-12T14:52:20;11.90;99.90
25951;DHT22;13748;52.240;6.002;2023-03-12T14:54:56;11.90;99.90
25951;DHT22;13748;52.240;6.002;2023-03-12T14:57:23;12.00;99.90
25951;DHT22;13748;52.240;6.002;2023-03-12T14:59:55;12.10;99.90
25951;DHT22;13748;52.240;6.002;2023-03-12T15:02:24;12.10;99.90
25951;DHT22;13748;52.240;6.002;2023-03-12T15:04:54;12.10;99.90
25951;DHT22;13748;52.240;6.002;2023-03-12T15:07:27;12.10;99.90
25951;DHT22;13748;52.240;6.002;2023-03-12T15:09:55;12.00;99.90
25951;DHT22;13748;52.240;6.002;2023-03-12T15:12:30;11.90;99.90
25951;DHT22;13748;52.240;6.002;2023-03-12T15:15:07;11.80;99.90
25951;DHT22;13748;52.240;6.002;2023-03-12T15:17:35;11.70;99.90
25951;DHT22;13748;52.240;6.002;2023-03-12T15:20:04;11.60;99.90
25951;DHT22;13748;52.240;6.002;2023-03-12T15:22:35;11.60;99.90
25951;DHT22;13748;52.240;6.002;2023-03-12T15:25:24;11.50;99.90
25951;DHT22;13748;52.240;6.002;2023-03-12T15:30:35;11.50;99.90
25951;DHT22;13748;52.240;6.002;2023-03-12T15:35:55;11.50;99.90
25951;DHT22;13748;52.240;6.002;2023-03-12T15:38:23;11.50;99.90
25951;DHT22;13748;52.240;6.002;2023-03-12T15:40:52;11.50;99.90
25951;DHT22;13748;52.240;6.002;2023-03-12T15:43:22;11.50;99.90
25951;DHT22;13748;52.240;6.002;2023-03-12T15:46:01;11.50;99.90
25951;DHT22;13748;52.240;6.002;2023-03-12T15:48:37;11.50;99.90
25951;DHT22;13748;52.240;6.002;2023-03-12T15:51:26;11.50;99.90
25951;DHT22;13748;52.240;6.002;2023-03-12T15:54:23;11.50;99.90
25951;DHT22;13748;52.240;6.002;2023-03-12T15:56:51;11.50;99.90
25951;DHT22;13748;52.240;6.002;2023-03-12T15:59:25;11.50;99.90
25951;DHT22;13748;52.240;6.002;2023-03-12T16:01:55;11.50;99.90
25951;DHT22;13748;52.240;6.002;2023-03-12T16:04:22;11.50;99.90
25951;DHT22;13748;52.240;6.002;2023-03-12T16:06:50;11.50;99.90
25951;DHT22;13748;52.240;6.002;2023-03-12T16:09:25;11.50;99.90
25951;DHT22;13748;52.240;6.002;2023-03-12T16:11:53;11.40;99.90
25951;DHT22;13748;52.240;6.002;2023-03-12T16:14:28;11.40;99.90
25951;DHT22;13748;52.240;6.002;2023-03-12T16:16:55;11.30;99.90
25951;DHT22;13748;52.240;6.002;2023-03-12T16:19:23;11.30;99.90
25951;DHT22;13748;52.240;6.002;2023-03-12T16:21:50;11.30;99.90
25951;DHT22;13748;52.240;6.002;2023-03-12T16:24:16;11.30;99.90
25951;DHT22;13748;52.240;6.002;2023-03-12T16:26:52;11.20;99.90
25951;DHT22;13748;52.240;6.002;2023-03-12T16:29:21;11.20;99.90
25951;DHT22;13748;52.240;6.002;2023-03-12T16:31:51;11.10;99.90
25951;DHT22;13748;52.240;6.002;2023-03-12T16:34:20;11.10;99.90
25951;DHT22;13748;52.240;6.002;2023-03-12T16:36:46;11.10;99.90
25951;DHT22;13748;52.240;6.002;2023-03-12T16:39:13;11.00;99.90
25951;DHT22;13748;52.240;6.002;2023-03-12T16:41:42;11.00;99.90
25951;DHT22;13748;52.240;6.002;2023-03-12T16:44:14;11.00;99.90
25951;DHT22;13748;52.240;6.002;2023-03-12T16:46:43;11.00;99.90
25951;DHT22;13748;52.240;6.002;2023-03-12T16:49:15;11.00;99.90
25951;DHT22;13748;52.240;6.002;2023-03-12T16:51:42;10.90;99.90
25951;DHT22;13748;52.240;6.002;2023-03-12T16:54:09;10.90;99.90
25951;DHT22;13748;52.240;6.002;2023-03-12T16:56:40;10.90;99.90
25951;DHT22;13748;52.240;6.002;2023-03-12T17:01:47;10.90;99.90
25951;DHT22;13748;52.240;6.002;2023-03-12T17:04:14;10.90;99.90
25951;DHT22;13748;52.240;6.002;2023-03-12T17:06:41;10.90;99.90
25951;DHT22;13748;52.240;6.002;2023-03-12T17:09:08;10.80;99.90
25951;DHT22;13748;52.240;6.002;2023-03-12T17:11:36;10.80;99.90
25951;DHT22;13748;52.240;6.002;2023-03-12T17:14:27;10.80;99.90
25951;DHT22;13748;52.240;6.002;2023-03-12T17:16:52;10.80;99.90
25951;DHT22;13748;52.240;6.002;2023-03-12T17:19:19;10.70;99.90
25951;DHT22;13748;52.240;6.002;2023-03-12T17:21:47;10.70;99.90
25951;DHT22;13748;52.240;6.002;2023-03-12T17:24:14;10.70;99.90
25951;DHT22;13748;52.240;6.002;2023-03-12T17:26:42;10.70;99.90
25951;DHT22;13748;52.240;6.002;2023-03-12T17:29:10;10.60;99.90